KCCU

Red Cliff Pass Airport

Copper Mountain, Colorado, USA
METAR KCCU 191653Z AUTO 30010G17KT 10SM SCT009 BKN012 OVC019 07/02 A3060 RMK AO2
Observed Flight Rules
Aug-19 @ 16:53 UTC (18 minutes ago) Marginal Visual Flight Rules
Wind Visibility Clouds
300° at 10 knots
 Gusting to 17 knots
10 miles
  • Scattered at 900' AGL
  • Broken at 1,200' AGL
  • Overcast at 1,900' AGL
Temperatures Readings
Current 7°C / 45°F
Dewpoint 2°C / 36°F
Humidity 71%
Altimeter 30.6" Hg
Pressure 1036 hPa
Elevation 3680
METAR KCCU 191653Z AUTO 30010G17KT 10SM SCT009 BKN012 OVC019 07/02 A3060 RMK AO2
Observed Flight Rules
Aug-19 @ 16:53 UTC
(18 minutes ago)
MVFR
Wind Visibility
300° at 10 knots
 Gusting to 17 knots
10 miles
Clouds
  • Scattered at 900' AGL
  • Broken at 1,200' AGL
  • Overcast at 1,900' AGL
Temperature Dewpoint
7°C / 45°F 2°C / 36°F
Humidity Altimeter Pressure
71% 30.6" Hg 1036 hPa